The Cedars, Virginia
Current Conditions -  °F | °C
As of 4:35 PM on Wednesday 26 Nov 2014 (Local Time) from KMKJ Reporting Station
Overcast Overcast  
Wind Chill: 29°   Ceiling: 300
Heat Index: 37°   Visibility: 7mi
Dew Point: 36°   Wind: 12mph
Humidity: 95%   Direction: 250°WSW
Pressure: 29.98"   Gusts: NA
Location:  36.8339°N, 81.5195°W
Report Text: KMKJ 262135Z AUTO 25010KT 7SM BKN003 OVC018 03/02 A2998 RMK AO2 T00280021
Loading
Personal Weather Stations






























Interactive Weather Map New forecast layout! Learn more

10-Day Weather Forecast

Advertisements
Track Severe Weather on mobile